Stunt Ranch Reserve, Santa Monica Mtns, California Weather observations

Data are for 10 minute period ending at time listed.
 Day   Time   Solar   Ave.   Ave.  Ave.  Vector  Max.   Baro.   Total    
  of    of     Rad.   Air    Rel.  Wind   Wind   Wind  Press.  Precip.   
Year   Day            Temp.  Hum.  Speed  Dir.   Gust                    
2015   (PST)  Kw/m2    F      %     mph   deg.    mph    mb.     in.     
-------------------------------------------------------------------------
  28    4:10   0.00   53.3    73    0.7   127     1.8   974.3    0.00 
  28    4:20   0.00   54.1    70    1.8   141     3.1   973.9    0.00 
  28    4:30   0.00   55.1    67    1.4   133     3.6   973.9    0.00 
  28    4:40   0.00   55.5    67    0.5    82     2.1   973.9    0.00 
  28    4:50   0.00   54.5    71    1.5   140     4.2   973.9    0.00 
  28    5:00   0.00   55.4    68    3.8   147     5.6   973.9    0.00 
  28    5:10   0.00   56.4    66    3.5   146     6.0   973.9    0.00 
  28    5:20   0.00   56.2    68    2.3   128     4.1   973.9    0.00 
  28    5:30   0.00   55.7    68    3.9   138     6.0   973.9    0.00 
  28    5:40   0.00   56.2    67    2.9   147     5.0   973.9    0.00 
  28    5:50   0.00   56.5    65    2.9   160     5.7   973.9    0.00 
  28    6:00   0.00   57.0    64    4.1   156     6.4   973.9    0.00 
  28    6:10   0.00   56.8    64    3.4   162     6.2   973.9    0.00 
  28    6:20   0.00   56.9    65    1.5   125     4.6   973.9    0.00 
  28    6:30   0.00   56.0    67    3.1   149     5.5   973.9    0.00 
  28    6:40   0.00   57.0    64    3.0   207     5.9   973.9    0.00 
  28    6:50   0.00   57.0    65    2.5   170     5.9   974.3    0.00 
  28    7:00   0.00   55.7    69    1.2   116     5.3   974.3    0.00 
  28    7:10   0.01   54.3    73    2.7   130     4.2   974.3    0.00 
  28    7:20   0.01   54.1    74    3.2   158     4.5   974.3    0.00 
  28    7:30   0.02   54.9    72    2.0   152     4.7   974.6    0.00 
  28    7:40   0.04   54.0    75    2.6   150     4.1   974.3    0.00 
  28    7:50   0.05   55.4    72    1.8   191     4.1   974.6    0.00 
  28    8:00   0.06   55.4    72    0.1   291     1.3   974.6    0.00 
  28    8:10   0.09   55.7    71    0.5   125     2.3   974.9    0.00 
  28    8:20   0.10   56.2    71    1.2    97     2.7   974.9    0.00 
  28    8:30   0.13   56.6    71    2.4   104     3.8   974.6    0.00 
  28    8:40   0.16   58.3    67    1.6   142     3.2   974.9    0.00 
  28    8:50   0.22   60.4    66    1.1    83     2.9   974.9    0.00 
  28    9:00   0.15   60.5    64    1.9   126     4.2   974.9    0.00 
  28    9:10   0.21   59.7    66    2.8   119     5.8   974.9    0.00 
  28    9:20   0.29   60.8    62    2.1    72     4.1   974.9    0.00 
  28    9:30   0.28   61.7    59    2.0    91     3.7   974.9    0.00 
  28    9:40   0.23   62.0    58    0.9    56     2.6   974.9    0.00 
  28    9:50   0.27   62.2    56    1.9   114     4.7   974.6    0.00 
  28   10:00   0.30   63.0    55    0.6   257     2.7   974.6    0.00 
  28   10:10   0.38   63.6    55    1.4    72     4.1   974.6    0.00 
  28   10:20   0.52   64.9    53    1.1    36     3.7   974.6    0.00 
  28   10:30   0.51   66.3    51    1.5   316     4.2   974.6    0.00 
  28   10:40   0.41   66.5    54    2.1   302     4.7   974.3    0.00 
  28   10:50   0.37   67.1    55    2.7   268     5.0   974.3    0.00 
  28   11:00   0.37   66.6    55    1.7   275     4.7   974.3    0.00 
  28   11:10   0.37   67.0    54    2.5   265     5.0   974.3    0.00 
  28   11:20   0.35   67.0    56    1.4   280     3.9   973.9    0.00 
  28   11:30   0.37   67.8    54    1.4   272     4.1   973.9    0.00 
  28   11:40   0.39   68.4    54    1.4   282     4.2   973.6    0.00 
  28   11:50   0.43   67.6    52    1.0   239     3.5   973.3    0.00 
  28   12:00   0.48   68.5    50    1.1   304     2.6   973.3    0.00 
  28   12:10   0.46   69.4    47    0.9   350     2.3   972.9    0.00 
  28   12:20   0.43   70.2    45    0.8    44     3.1   972.9    0.00 
  28   12:30   0.45   69.3    46    1.8   345     4.5   972.6    0.00 
  28   12:40   0.40   70.3    45    2.1   287     6.6   972.6    0.00 
  28   12:50   0.39   71.1    46    1.9   319     6.3   972.2    0.00 
  28   13:00   0.35   70.9    42    2.6   334     5.7   972.2    0.00 
  28   13:10   0.31   70.3    40    2.6    16     6.7   972.2    0.00 
  28   13:20   0.28   69.3    40    3.0    62     6.9   972.2    0.00 
  28   13:30   0.28   69.0    41    2.2    45     5.3   972.2    0.00 
  28   13:40   0.27   69.2    41    2.1    35     6.3   971.9    0.00 
  28   13:50   0.27   69.4    39    2.2     1     5.6   971.9    0.00 
  28   14:00   0.23   69.4    42    3.0   336     9.3   971.9    0.00 
  28   14:10   0.20   69.6    43    2.2   334     6.5   971.9    0.00 
  28   14:20   0.20   69.3    44    2.8   330     7.4   971.9    0.00 
  28   14:30   0.18   69.3    45    0.6   330     4.7   972.2    0.00 
  28   14:40   0.17   69.5    44    0.9   336     2.6   972.2    0.00 
  28   14:50   0.14   69.1    44    2.6    18     4.9   972.2    0.00 
  28   15:00   0.11   67.4    45    5.1    61     8.9   972.2    0.00 
  28   15:10   0.10   66.7    47    4.6    48     8.5   972.2    0.00 
  28   15:20   0.09   66.3    48    5.7    48    10.0   972.2    0.00 
  28   15:30   0.09   66.0    48    4.7    61     9.3   972.2    0.00 
  28   15:40   0.08   66.0    49    4.8    54     8.5   972.2    0.00 
  28   15:50   0.08   65.9    49    4.2    56     6.9   972.2    0.00 
  28   16:00   0.08   65.8    50    1.1    40     5.6   971.9    0.00 
  28   16:10   0.06   65.8    51    2.2   346     4.5   971.9    0.00 
  28   16:20   0.05   65.2    53    1.2   299     4.5   971.9    0.00 
  28   16:30   0.03   64.7    54    0.8   255     3.1   971.9    0.00 
  28   16:40   0.03   64.4    54    1.8   244     4.6   971.9    0.00 
  28   16:50   0.02   64.5    53    2.2   276     8.0   972.2    0.00 
  28   17:00   0.01   64.8    53    0.7   206     2.6   972.2    0.00 
  28   17:10   0.01   64.5    53    1.8   305     7.3   972.2    0.00 
  28   17:20   0.01   64.2    55    0.3    94     2.5   972.2    0.00 
  28   17:30   0.00   63.8    55    1.0   287     4.4   972.6    0.00 
  28   17:40   0.00   63.3    56    1.4   301     3.7   972.6    0.00 
  28   17:50   0.00   63.3    56    1.2   192     2.7   972.6    0.00 
  28   18:00   0.00   63.5    54    1.1    87     4.8   972.6    0.00 
  28   18:10   0.00   64.0    52    1.1   151     2.7   972.6    0.00 
  28   18:20   0.00   63.6    52    1.3   224     3.1   972.9    0.00 
  28   18:30   0.00   62.8    54    1.6   157     3.4   972.9    0.00 
  28   18:40   0.00   62.9    53    0.7   113     2.3   972.9    0.00 
  28   18:50   0.00   62.3    55    2.3   172     4.7   972.9    0.00 
  28   19:00   0.00   62.4    54    2.1   135     5.8   972.9    0.00 
  28   19:10   0.00   62.1    54    3.1   149     6.1   972.9    0.00 
  28   19:20   0.00   62.3    53    1.7    90     4.4   972.9    0.00 
  28   19:30   0.00   61.5    54    2.8   145     5.9   972.6    0.00 
  28   19:40   0.00   62.0    52    3.8   146     6.4   972.9    0.00 
  28   19:50   0.00   62.5    51    4.8   146     7.5   972.9    0.00 
  28   20:00   0.00   63.0    49    3.5   102     6.2   972.9    0.00 
  28   20:10   0.00   62.3    50    3.4   126     5.4   972.9    0.00 
  28   20:20   0.00   62.1    51    2.7   133     4.1   972.9    0.00 
  28   20:30   0.00   61.8    51    3.0   142     4.2   972.9    0.00 
  28   20:40   0.00   61.8    51    3.3   142     6.2   972.9    0.00 
  28   20:50   0.00   61.8    51    2.4   161     5.0   973.3    0.00 
  28   21:00   0.00   61.4    51    2.8   180     4.5   973.3    0.00 
  28   21:10   0.00   61.2    52    3.2   175     4.7   973.3    0.00 
  28   21:20   0.00   60.5    54    1.8   162     4.2   973.3    0.00 
  28   21:30   0.00   59.5    56    1.2   281     3.1   973.3    0.00 
  28   21:40   0.00   59.3    56    0.8   139     2.2   973.3    0.00 
  28   21:50   0.00   59.5    54    3.6   141     7.2   973.3    0.00 
  28   22:00   0.00   60.6    51    3.4   120     7.5   973.3    0.00 
  28   22:10   0.00   62.2    49    3.6   127     7.2   973.3    0.00 
  28   22:20   0.00   62.3    48    3.6   106     8.5   972.9    0.00 
  28   22:30   0.00   62.7    48    3.5   106     6.7   973.3    0.00 
  28   22:40   0.00   62.5    48    3.6   127     7.4   972.9    0.00 
  28   22:50   0.00   62.4    48    5.0   102     9.8   972.9    0.00 
  28   23:00   0.00   62.5    48    3.7    92     8.6   972.9    0.00 
  28   23:10   0.00   62.2    49    4.1   120     7.1   972.6    0.00 
  28   23:20   0.00   62.0    50    0.8   192     3.0   972.6    0.00 
  28   23:30   0.00   61.2    52    3.7   141     6.6   972.6    0.00 
  28   23:40   0.00   61.5    50    3.5   135     6.4   972.6    0.00 
  28   23:50   0.00   62.0    49    3.4   121     6.0   972.2    0.00 
  29    0:00   0.00   62.0    49    4.0   122     7.1   972.2    0.00 
  29    0:10   0.00   62.1    48    2.6   116     6.3   972.2    0.00 
  29    0:20   0.00   62.4    48    2.5   146     5.1   972.2    0.00 
  29    0:30   0.00   62.0    48    2.7   156     4.5   971.9    0.00 
  29    0:40   0.00   61.6    49    2.5   161     4.5   971.9    0.00 
  29    0:50   0.00   62.0    47    3.3   153     6.0   971.9    0.00 
  29    1:00   0.00   62.1    48    2.8   148     5.7   971.9    0.00 
  29    1:10   0.00   61.9    47    2.8   172     5.0   971.9    0.00 
  29    1:20   0.00   61.3    48    1.9   169     3.4   971.9    0.00 
  29    1:30   0.00   61.1    49    1.7   149     3.8   971.9    0.00 
  29    1:40   0.00   59.7    52    2.2   157     4.7   971.9    0.00 
  29    1:50   0.00   60.9    48    2.3   155     3.6   971.9    0.00 
  29    2:00   0.00   60.9    49    1.0   169     4.7   971.6    0.00 
  29    2:10   0.00   60.1    50    2.1   157     4.3   971.6    0.00 
  29    2:20   0.00   60.5    50    2.7   145     5.6   971.9    0.00 
  29    2:30   0.00   61.0    48    4.2   145     6.1   971.9    0.00 
  29    2:40   0.00   61.3    48    3.2   151     5.3   971.9    0.00 
  29    2:50   0.00   60.5    50    3.1   142     5.0   971.6    0.00 
  29    3:00   0.00   60.9    48    4.7   141     6.9   971.6    0.00 
  29    3:10   0.00   61.9    46    2.8   132     5.3   971.6    0.00 
  29    3:20   0.00   61.5    47    4.4   131     7.3   971.6    0.00 
  29    3:30   0.00   61.4    48    3.2   152     7.5   971.6    0.00 
  29    3:40   0.00   61.2    48    3.3   138     5.1   971.2    0.00 
  29    3:50   0.00   61.2    47    4.1   136     6.1   971.2    0.00 
  29    4:00   0.00   61.2    48    3.2   135     5.9   971.2    0.00 

Return to Stunt Ranch Reserve graphs page.


Western Regional Climate Center,wrcc@dri.edu